Time;durP1;ratioP1;P1;durP2;ratioP2;P2;SDS_P1;SDS_P2;PMS_P1;PMS_P2;Temp;Humidity;BMP_temperature;BMP_pressure;BME280_temperature;BME280_humidity;BME280_pressure;Samples;Min_cycle;Max_cycle;Signal;HPM_P1;HPM_P2
2023/07/01 00:01:48;;;;;;;2.85;2.60;;;;;;;20.20;57.29;100575.69;4993383;28;20449;-75
2023/07/01 00:04:14;;;;;;;4.30;2.87;;;;;;;20.16;57.45;100573.69;4993445;28;20386;-75
2023/07/01 00:06:43;;;;;;;7.40;2.80;;;;;;;20.17;57.25;100569.97;4993521;28;20385;-75
2023/07/01 00:09:12;;;;;;;3.83;2.58;;;;;;;20.18;57.05;100569.69;4993448;28;20491;-75
2023/07/01 00:11:39;;;;;;;4.47;2.90;;;;;;;20.28;56.76;100579.06;4993524;28;20472;-74
2023/07/01 00:14:05;;;;;;;5.28;2.90;;;;;;;20.27;56.58;100578.22;4993534;28;20382;-75
2023/07/01 00:16:30;;;;;;;3.17;2.50;;;;;;;20.21;56.50;100577.31;4993324;28;20423;-74
2023/07/01 00:18:56;;;;;;;4.10;2.80;;;;;;;20.19;56.79;100578.63;4993474;28;20547;-75
2023/07/01 00:21:21;;;;;;;6.80;3.10;;;;;;;19.97;57.66;100576.53;4993260;28;20444;-75
2023/07/01 00:23:47;;;;;;;2.85;2.63;;;;;;;19.76;58.60;100574.44;4993192;28;20390;-74
2023/07/01 00:26:12;;;;;;;8.33;2.70;;;;;;;19.85;58.11;100570.34;4992653;28;20389;-74
2023/07/01 00:28:38;;;;;;;6.40;2.83;;;;;;;19.82;57.94;100565.44;4992940;28;20381;-74
2023/07/01 00:31:03;;;;;;;6.60;2.85;;;;;;;19.86;57.54;100575.50;4992967;28;20452;-74
2023/07/01 00:33:28;;;;;;;3.40;2.47;;;;;;;19.91;57.37;100577.47;4992861;28;20485;-75
2023/07/01 00:35:54;;;;;;;4.20;2.67;;;;;;;19.82;57.49;100573.50;4993039;28;20405;-75
2023/07/01 00:38:19;;;;;;;3.25;2.80;;;;;;;19.73;57.89;100567.66;4992848;28;21126;-74
2023/07/01 00:40:45;;;;;;;2.80;2.33;;;;;;;19.74;57.76;100563.91;4992429;28;20385;-75
2023/07/01 00:43:10;;;;;;;5.03;2.65;;;;;;;19.71;57.79;100560.84;4992933;28;20394;-75
2023/07/01 00:45:36;;;;;;;3.97;2.40;;;;;;;19.57;58.12;100568.31;4992512;28;20378;-75
2023/07/01 00:48:02;;;;;;;5.20;2.70;;;;;;;19.47;58.25;100563.53;4992568;28;20835;-75
2023/07/01 00:50:27;;;;;;;6.28;2.90;;;;;;;19.36;58.64;100573.22;4992563;28;20396;-75
2023/07/01 00:52:53;;;;;;;8.00;2.97;;;;;;;19.10;59.38;100577.97;4992281;28;20386;-75
2023/07/01 00:55:19;;;;;;;8.27;3.10;;;;;;;18.98;59.60;100571.75;4991951;28;20410;-74
2023/07/01 00:57:44;;;;;;;7.70;3.10;;;;;;;19.04;59.44;100578.06;4992987;28;20390;-74
2023/07/01 01:00:12;;;;;;;13.05;3.53;;;;;;;19.02;59.45;100577.47;4975107;28;20965;-75
2023/07/01 01:02:54;;;;;;;7.63;2.85;;;;;;;18.96;59.70;100579.22;4992043;28;20414;-75
2023/07/01 01:05:30;;;;;;;4.63;3.17;;;;;;;18.93;60.13;100582.34;4992292;28;20884;-75
2023/07/01 01:08:09;;;;;;;6.32;3.15;;;;;;;18.97;59.90;100571.97;4992372;28;20390;-75
2023/07/01 01:10:40;;;;;;;4.82;3.22;;;;;;;19.05;59.45;100571.63;4992316;28;20377;-75
2023/07/01 01:13:06;;;;;;;7.40;3.40;;;;;;;19.06;59.62;100571.41;4992234;28;20386;-75
2023/07/01 01:15:33;;;;;;;5.70;3.00;;;;;;;19.17;59.20;100574.34;4992188;28;20507;-75
2023/07/01 01:18:04;;;;;;;4.50;2.72;;;;;;;19.17;59.29;100568.97;4992459;28;20843;-74
2023/07/01 01:20:33;;;;;;;3.40;3.10;;;;;;;19.20;59.13;100555.91;4992294;28;20397;-75
2023/07/01 01:23:04;;;;;;;6.07;3.33;;;;;;;19.22;58.63;100542.25;4991964;28;20386;-74
2023/07/01 01:25:54;;;;;;;6.45;3.00;;;;;;;19.14;59.02;100556.00;4992209;28;20382;-75
2023/07/01 01:28:20;;;;;;;9.20;3.40;;;;;;;19.17;58.98;100547.47;4992182;28;20370;-75
2023/07/01 01:30:45;;;;;;;4.82;3.15;;;;;;;19.22;58.63;100545.75;4992157;28;20468;-75
2023/07/01 01:33:11;;;;;;;5.93;3.33;;;;;;;19.25;58.55;100553.34;4992061;28;20774;-75
2023/07/01 01:35:36;;;;;;;4.00;3.00;;;;;;;19.18;58.73;100546.44;4974883;28;20414;-74
2023/07/01 01:38:18;;;;;;;6.37;3.13;;;;;;;19.07;59.30;100556.13;4991780;28;20400;-75
2023/07/01 01:40:49;;;;;;;3.92;3.00;;;;;;;19.03;59.43;100571.03;4991967;28;20382;-75
2023/07/01 01:43:34;;;;;;;6.18;2.90;;;;;;;18.98;59.57;100554.78;4991795;28;20810;-75
2023/07/01 01:46:00;;;;;;;6.55;2.72;;;;;;;18.94;59.80;100567.84;4992018;28;20374;-75
2023/07/01 01:48:26;;;;;;;4.65;2.90;;;;;;;18.77;59.87;100561.47;4992010;28;20399;-75
2023/07/01 01:50:54;;;;;;;3.10;2.57;;;;;;;18.77;59.81;100556.91;4992103;28;20370;-74
2023/07/01 01:53:24;;;;;;;4.53;2.70;;;;;;;18.88;59.43;100553.47;4991502;28;20381;-75
2023/07/01 01:55:50;;;;;;;5.30;2.80;;;;;;;18.96;59.10;100565.78;4991915;28;20402;-75
2023/07/01 01:58:16;;;;;;;4.85;2.97;;;;;;;18.95;58.97;100549.91;4991957;28;20393;-75
2023/07/01 02:00:44;;;;;;;7.07;3.03;;;;;;;18.91;59.03;100558.41;4991929;28;20382;-75
2023/07/01 02:03:10;;;;;;;4.90;2.75;;;;;;;18.67;59.79;100545.91;4991792;28;20424;-75
2023/07/01 02:05:35;;;;;;;7.47;2.95;;;;;;;18.53;60.51;100556.03;4991886;28;20386;-75
2023/07/01 02:08:02;;;;;;;7.53;3.33;;;;;;;18.51;60.73;100558.09;4991536;28;20472;-74
2023/07/01 02:10:28;;;;;;;10.90;3.37;;;;;;;18.63;60.35;100558.97;4991833;28;20382;-74
2023/07/01 02:12:53;;;;;;;9.43;3.30;;;;;;;18.68;59.93;100542.19;4994365;28;20386;-74
2023/07/01 02:15:19;;;;;;;10.93;3.50;;;;;;;18.81;59.34;100546.53;4978363;28;20847;-74
2023/07/01 02:17:45;;;;;;;7.65;3.10;;;;;;;18.91;58.82;100549.53;4995546;28;20389;-74
2023/07/01 02:20:11;;;;;;;7.90;3.03;;;;;;;18.94;58.70;100549.06;4995482;28;20396;-75
2023/07/01 02:22:37;;;;;;;4.75;2.65;;;;;;;18.94;58.74;100551.75;4981277;28;20501;-75
2023/07/01 02:25:03;;;;;;;5.57;3.03;;;;;;;18.84;58.86;100546.94;4981274;28;20764;-75
2023/07/01 02:27:30;;;;;;;3.85;2.67;;;;;;;18.82;58.93;100551.72;4988071;28;20375;-75
2023/07/01 02:29:57;;;;;;;4.15;2.50;;;;;;;18.86;58.77;100552.09;4990203;28;20447;-75
2023/07/01 02:32:23;;;;;;;6.80;3.55;;;;;;;18.84;58.69;100557.69;4984340;28;20895;-74
2023/07/01 02:34:49;;;;;;;7.47;3.40;;;;;;;18.83;58.67;100556.03;4983477;28;20484;-75
2023/07/01 02:37:14;;;;;;;7.35;3.80;;;;;;;18.72;59.02;100559.47;4979114;28;20420;-74
2023/07/01 02:39:40;;;;;;;9.53;3.27;;;;;;;18.56;59.59;100570.84;4977512;28;20967;-74
2023/07/01 02:42:06;;;;;;;11.13;3.55;;;;;;;18.44;59.92;100555.50;4973666;28;20406;-74
2023/07/01 02:44:31;;;;;;;6.07;3.28;;;;;;;18.55;59.76;100564.66;4973309;28;20406;-74
2023/07/01 02:46:57;;;;;;;3.80;2.93;;;;;;;18.55;59.64;100559.28;4973223;28;20897;-74
2023/07/01 02:49:23;;;;;;;5.90;3.10;;;;;;;18.53;59.81;100561.38;4973394;28;20390;-74
2023/07/01 02:51:48;;;;;;;4.40;2.80;;;;;;;18.54;59.65;100554.94;4975081;28;20860;-75
2023/07/01 02:54:13;;;;;;;5.72;2.85;;;;;;;18.43;59.83;100566.47;4975269;28;20419;-75
2023/07/01 02:56:39;;;;;;;5.10;3.10;;;;;;;18.34;60.23;100560.56;4975263;28;20876;-75
2023/07/01 02:59:04;;;;;;;5.47;3.10;;;;;;;18.32;60.18;100563.47;4974976;28;20396;-75
2023/07/01 03:01:30;;;;;;;5.23;2.87;;;;;;;18.35;60.13;100559.53;4958149;28;20513;-75
2023/07/01 03:03:56;;;;;;;3.93;2.90;;;;;;;18.44;59.83;100558.19;4975382;28;20399;-75
2023/07/01 03:06:21;;;;;;;3.45;3.08;;;;;;;18.56;59.60;100560.91;4975347;28;20387;-75
2023/07/01 03:08:47;;;;;;;4.75;3.00;;;;;;;18.58;59.57;100566.88;4975447;28;20399;-75
2023/07/01 03:11:13;;;;;;;5.33;2.93;;;;;;;18.64;59.43;100567.84;4958626;28;20391;-75
2023/07/01 03:13:38;;;;;;;6.75;2.92;;;;;;;18.82;59.20;100569.72;4975145;28;20391;-75
2023/07/01 03:16:06;;;;;;;14.50;4.10;;;;;;;18.97;58.65;100575.47;4957852;28;20407;-75
2023/07/01 03:18:33;;;;;;;11.48;3.70;;;;;;;19.13;58.54;100574.00;4974854;28;20853;-75
2023/07/01 03:21:00;;;;;;;5.65;3.17;;;;;;;19.25;58.17;100574.03;4957512;28;20391;-76
2023/07/01 03:23:29;;;;;;;7.38;3.60;;;;;;;19.32;58.05;100564.00;4988770;28;20405;-76
2023/07/01 03:25:55;;;;;;;5.68;3.40;;;;;;;19.46;57.83;100578.03;4992945;28;20397;-75
2023/07/01 03:28:21;;;;;;;7.57;3.55;;;;;;;19.51;57.70;100567.38;4992447;28;20382;-75
2023/07/01 03:30:47;;;;;;;6.03;3.30;;;;;;;19.59;57.72;100574.28;4994160;28;20397;-77
2023/07/01 03:33:12;;;;;;;6.15;3.15;;;;;;;19.62;57.61;100574.63;4993883;28;20382;-75
2023/07/01 03:35:38;;;;;;;8.20;3.20;;;;;;;19.71;57.52;100583.19;4994175;28;20409;-75
2023/07/01 03:38:04;;;;;;;5.20;3.10;;;;;;;19.92;57.11;100581.81;4994227;28;20386;-77
2023/07/01 03:40:31;;;;;;;5.90;3.40;;;;;;;20.06;56.69;100579.69;4994311;28;20533;-76
2023/07/01 03:42:56;;;;;;;5.03;2.83;;;;;;;20.13;56.53;100582.25;4994084;28;20489;-75
2023/07/01 03:45:22;;;;;;;6.97;3.00;;;;;;;20.13;56.43;100577.69;4994062;28;20460;-75
2023/07/01 03:47:47;;;;;;;16.55;4.35;;;;;;;20.23;56.18;100582.47;4976697;28;20936;-75
2023/07/01 03:50:14;;;;;;;7.87;3.47;;;;;;;20.16;56.09;100577.19;4993962;28;20783;-76
2023/07/01 03:52:41;;;;;;;5.95;3.22;;;;;;;20.24;55.85;100581.41;4993880;28;20847;-75
2023/07/01 03:55:08;;;;;;;9.43;3.15;;;;;;;20.36;55.53;100573.31;4993697;28;20381;-74
2023/07/01 03:57:34;;;;;;;4.65;2.90;;;;;;;20.33;55.27;100576.47;4994043;28;20428;-75
2023/07/01 04:00:01;;;;;;;9.82;3.47;;;;;;;20.38;55.03;100579.25;4993850;28;20455;-76
2023/07/01 04:02:26;;;;;;;7.07;3.20;;;;;;;20.38;54.81;100584.66;4973463;28;20445;-75
2023/07/01 04:04:52;;;;;;;5.47;2.97;;;;;;;20.41;54.46;100593.06;4974198;28;20387;-75
2023/07/01 04:07:21;;;;;;;4.97;3.17;;;;;;;20.20;54.44;100593.69;4973162;28;20852;-75
2023/07/01 04:09:49;;;;;;;7.05;2.92;;;;;;;19.97;54.40;100594.53;4973378;28;20383;-75
2023/07/01 04:12:16;;;;;;;6.00;2.83;;;;;;;19.76;55.07;100599.47;4955166;28;20395;-75
2023/07/01 04:14:41;;;;;;;4.78;3.17;;;;;;;19.86;54.64;100602.41;4973343;28;20860;-75
2023/07/01 04:17:06;;;;;;;7.63;3.10;;;;;;;20.02;54.70;100600.03;4973021;28;20410;-76
2023/07/01 04:19:32;;;;;;;4.40;3.10;;;;;;;20.09;54.43;100597.22;4973562;28;20903;-76
2023/07/01 04:21:57;;;;;;;3.20;2.65;;;;;;;20.40;53.95;100610.28;4973272;28;20425;-76
2023/07/01 04:24:23;;;;;;;4.40;3.00;;;;;;;20.59;53.51;100597.47;4973197;28;20545;-75
2023/07/01 04:26:49;;;;;;;3.47;2.60;;;;;;;20.66;53.08;100600.06;4973222;28;20394;-76
2023/07/01 04:29:14;;;;;;;4.10;3.00;;;;;;;20.57;53.39;100604.97;4973605;28;20387;-75
2023/07/01 04:31:39;;;;;;;7.13;3.10;;;;;;;20.54;53.44;100610.00;4973519;28;20391;-75
2023/07/01 04:34:05;;;;;;;4.95;2.88;;;;;;;20.57;53.40;100613.03;4973375;28;20456;-75
2023/07/01 04:36:31;;;;;;;5.93;3.13;;;;;;;20.74;53.45;100610.47;4972856;28;20514;-76
2023/07/01 04:38:56;;;;;;;4.00;2.80;;;;;;;20.79;53.15;100602.44;4973235;28;20470;-76
2023/07/01 04:41:21;;;;;;;4.30;2.87;;;;;;;20.89;53.27;100601.03;4972935;28;20903;-76
2023/07/01 04:43:47;;;;;;;7.87;3.00;;;;;;;20.96;53.22;100594.44;4972936;28;20387;-75
2023/07/01 04:46:12;;;;;;;5.97;3.08;;;;;;;21.00;53.38;100600.97;4972741;28;20436;-76
2023/07/01 04:48:38;;;;;;;3.70;2.70;;;;;;;21.16;53.39;100603.94;4973119;28;20438;-76
2023/07/01 04:51:03;;;;;;;7.50;3.60;;;;;;;21.34;53.13;100605.59;4971915;28;20418;-75
2023/07/01 04:53:29;;;;;;;5.97;3.00;;;;;;;21.50;53.27;100603.97;4973004;28;20442;-75
2023/07/01 04:55:54;;;;;;;5.00;3.17;;;;;;;21.70;52.95;100596.22;4987881;28;20899;-75
2023/07/01 04:58:20;;;;;;;9.43;3.70;;;;;;;21.62;53.20;100587.72;4972676;28;20482;-76
2023/07/01 05:00:46;;;;;;;3.70;3.35;;;;;;;21.70;53.37;100595.41;4972731;28;20455;-75
2023/07/01 05:03:12;;;;;;;5.22;3.60;;;;;;;21.97;53.06;100598.22;4972589;28;20419;-76
2023/07/01 05:05:37;;;;;;;5.57;4.13;;;;;;;22.02;53.03;100595.59;4986304;28;20388;-75
2023/07/01 05:08:03;;;;;;;6.40;3.73;;;;;;;22.13;53.22;100597.34;5000127;28;20488;-75
2023/07/01 05:10:28;;;;;;;8.13;4.05;;;;;;;22.20;53.08;100594.47;5000588;28;20858;-75
2023/07/01 05:12:54;;;;;;;8.03;4.10;;;;;;;22.36;52.88;100608.19;5001863;28;20401;-75
2023/07/01 05:15:19;;;;;;;8.32;4.30;;;;;;;22.31;53.08;100607.06;5011625;28;20773;-75
2023/07/01 05:17:45;;;;;;;6.67;4.10;;;;;;;22.14;53.61;100612.47;5012253;28;20423;-75
2023/07/01 05:20:11;;;;;;;6.30;4.10;;;;;;;22.18;53.91;100612.78;5011530;28;20391;-76
2023/07/01 05:22:37;;;;;;;7.15;4.40;;;;;;;22.23;54.07;100612.06;5011932;28;20463;-76
2023/07/01 05:25:03;;;;;;;5.13;4.00;;;;;;;22.25;54.05;100612.63;5012238;28;20904;-76
2023/07/01 05:27:30;;;;;;;6.47;4.68;;;;;;;22.41;53.83;100613.66;5011141;28;20446;-75
2023/07/01 05:29:57;;;;;;;5.32;4.65;;;;;;;22.57;53.76;100620.06;5010371;28;20931;-76
2023/07/01 05:32:23;;;;;;;7.90;5.10;;;;;;;22.90;53.21;100624.47;5011550;28;20449;-76
2023/07/01 05:34:49;;;;;;;7.55;4.88;;;;;;;22.96;52.89;100622.63;5011050;28;20395;-75
2023/07/01 05:37:14;;;;;;;16.25;6.03;;;;;;;22.91;53.33;100616.13;5010678;28;20495;-77
2023/07/01 05:39:40;;;;;;;7.80;5.37;;;;;;;23.15;52.93;100612.31;5010618;28;20431;-75
2023/07/01 05:42:05;;;;;;;10.03;5.03;;;;;;;23.17;52.58;100618.28;5011141;28;20376;-76
2023/07/01 05:44:31;;;;;;;8.05;5.28;;;;;;;23.25;52.30;100610.53;5011239;28;20423;-76
2023/07/01 05:46:57;;;;;;;6.73;4.90;;;;;;;23.37;51.83;100614.94;4993661;28;20399;-75
2023/07/01 05:49:22;;;;;;;10.40;5.15;;;;;;;23.43;51.37;100611.22;4983677;28;20397;-77
2023/07/01 05:51:48;;;;;;;6.97;5.33;;;;;;;23.54;51.50;100596.69;4995619;28;20418;-75
2023/07/01 05:54:14;;;;;;;8.23;5.77;;;;;;;23.81;50.96;100593.13;4995102;28;20397;-75
2023/07/01 05:56:39;;;;;;;11.32;6.30;;;;;;;23.88;50.78;100596.41;4988362;28;21005;-76
2023/07/01 05:59:05;;;;;;;9.20;5.97;;;;;;;24.09;50.53;100591.91;4976090;28;20486;-76
2023/07/01 06:01:30;;;;;;;9.90;5.85;;;;;;;24.42;49.91;100590.72;4980338;28;20522;-75
2023/07/01 06:03:56;;;;;;;11.57;6.20;;;;;;;24.66;49.65;100579.41;4982697;28;20436;-75
2023/07/01 06:06:22;;;;;;;13.13;6.20;;;;;;;24.91;49.07;100577.84;4978068;28;20861;-75
2023/07/01 06:08:47;;;;;;;6.67;5.00;;;;;;;24.94;48.83;100588.97;4963081;28;20441;-75
2023/07/01 06:11:13;;;;;;;5.83;5.10;;;;;;;25.30;48.27;100590.91;5001370;28;20506;-75
2023/07/01 06:13:45;;;;;;;8.75;4.93;;;;;;;25.70;47.22;100579.22;4981985;28;20417;-75
2023/07/01 06:16:10;;;;;;;8.75;4.88;;;;;;;25.47;47.60;100580.59;4994009;28;20409;-75
2023/07/01 06:18:36;;;;;;;11.27;4.93;;;;;;;25.81;46.87;100573.75;4995727;28;20462;-75
2023/07/01 06:21:03;;;;;;;9.68;4.68;;;;;;;26.03;46.45;100573.44;4996042;28;20404;-75
2023/07/01 06:23:30;;;;;;;11.13;4.80;;;;;;;26.32;45.82;100582.56;4994426;28;20791;-76
2023/07/01 06:25:56;;;;;;;9.32;4.70;;;;;;;26.58;45.07;100576.19;4994086;28;20389;-75
2023/07/01 06:28:22;;;;;;;9.73;4.70;;;;;;;26.80;44.30;100592.16;4994640;28;20381;-75
2023/07/01 06:30:47;;;;;;;8.60;4.43;;;;;;;26.49;44.31;100584.94;5005377;28;20391;-75
2023/07/01 06:33:13;;;;;;;8.80;4.17;;;;;;;25.97;44.41;100583.53;5001340;28;20420;-76
2023/07/01 06:35:41;;;;;;;6.90;4.30;;;;;;;25.98;44.88;100576.19;4993389;28;20500;-75
2023/07/01 06:38:07;;;;;;;18.40;6.10;;;;;;;26.19;44.51;100577.72;4991625;28;20398;-75
2023/07/01 06:40:33;;;;;;;10.13;4.80;;;;;;;26.37;44.86;100575.50;4994438;28;20393;-75
2023/07/01 06:42:58;;;;;;;8.17;4.83;;;;;;;26.51;44.09;100579.22;4975972;28;20378;-76
2023/07/01 06:45:24;;;;;;;15.48;4.93;;;;;;;26.67;44.01;100571.84;4993793;28;20377;-75
2023/07/01 06:47:49;;;;;;;9.30;4.17;;;;;;;27.02;43.61;100578.13;4976702;28;20382;-74
2023/07/01 06:50:15;;;;;;;9.50;4.33;;;;;;;27.31;43.05;100580.91;4976401;28;20463;-75
2023/07/01 06:52:40;;;;;;;5.53;4.13;;;;;;;27.59;42.47;100582.00;4994405;28;20492;-75
2023/07/01 06:55:07;;;;;;;14.20;4.90;;;;;;;27.46;42.81;100582.69;4995035;28;20393;-75
2023/07/01 06:57:33;;;;;;;14.20;5.13;;;;;;;27.53;42.82;100574.16;4975214;28;20448;-75
2023/07/01 06:59:59;;;;;;;10.23;4.90;;;;;;;27.59;43.47;100576.56;4993308;28;20520;-75
2023/07/01 07:02:25;;;;;;;11.05;4.63;;;;;;;27.71;42.30;100572.63;4994414;28;20480;-75
2023/07/01 07:04:52;;;;;;;10.57;4.57;;;;;;;27.60;42.67;100571.91;4994341;28;20377;-76
2023/07/01 07:07:18;;;;;;;8.48;4.57;;;;;;;28.10;42.12;100566.22;4976920;28;20374;-75
2023/07/01 07:09:44;;;;;;;11.25;5.50;;;;;;;28.09;42.16;100551.81;4993085;28;20893;-76
2023/07/01 07:12:10;;;;;;;12.53;5.23;;;;;;;28.06;42.84;100565.19;4992840;28;20480;-75
2023/07/01 07:14:35;;;;;;;15.43;5.65;;;;;;;28.21;42.77;100554.09;4996201;28;20456;-75
2023/07/01 07:17:01;;;;;;;15.53;5.30;;;;;;;28.39;42.26;100563.41;5001723;28;20415;-76
2023/07/01 07:19:26;;;;;;;7.77;4.90;;;;;;;28.47;42.43;100560.03;5001917;28;20413;-75
2023/07/01 07:21:52;;;;;;;7.23;5.10;;;;;;;28.44;42.03;100546.97;4995885;28;20381;-76
2023/07/01 07:24:17;;;;;;;10.65;5.07;;;;;;;28.31;42.70;100550.44;4995089;28;20867;-74
2023/07/01 07:26:53;;;;;;;8.10;5.32;;;;;;;28.32;43.12;100543.88;4977492;28;20386;-77
2023/07/01 07:29:18;;;;;;;6.88;5.10;;;;;;;28.45;42.89;100534.13;5002491;28;20795;-75
2023/07/01 07:31:43;;;;;;;9.93;5.30;;;;;;;28.51;42.76;100530.25;4994292;28;20488;-76
2023/07/01 07:34:09;;;;;;;10.00;5.47;;;;;;;28.55;42.68;100523.94;4993678;28;20389;-74
2023/07/01 07:36:34;;;;;;;8.07;4.93;;;;;;;28.67;42.44;100525.41;4993281;28;20405;-74
2023/07/01 07:39:00;;;;;;;9.13;5.03;;;;;;;28.82;42.04;100525.16;5001448;28;20508;-77
2023/07/01 07:41:26;;;;;;;5.87;4.57;;;;;;;28.81;41.96;100522.72;5002074;28;20405;-75
2023/07/01 07:43:51;;;;;;;10.85;5.00;;;;;;;28.93;41.74;100520.34;5001569;28;20406;-75
2023/07/01 07:46:17;;;;;;;13.53;4.77;;;;;;;29.03;41.64;100522.09;5002465;28;20411;-76
2023/07/01 07:48:42;;;;;;;9.27;4.77;;;;;;;29.11;41.44;100519.47;5002705;28;20401;-75
2023/07/01 07:51:08;;;;;;;13.57;5.30;;;;;;;29.05;41.30;100517.97;4995922;28;20385;-75
2023/07/01 07:53:33;;;;;;;6.80;4.30;;;;;;;29.07;41.38;100517.66;4993055;28;20468;-75
2023/07/01 07:55:58;;;;;;;7.90;4.60;;;;;;;29.32;41.18;100510.97;4992301;28;20782;-77
2023/07/01 07:58:24;;;;;;;15.30;5.10;;;;;;;29.47;40.70;100510.69;4993800;28;20521;-75
2023/07/01 08:00:49;;;;;;;4.30;3.83;;;;;;;29.37;40.35;100505.44;4994003;28;20858;-75
2023/07/01 08:03:15;;;;;;;7.60;4.00;;;;;;;29.42;39.87;100502.56;4992211;28;20418;-75
2023/07/01 08:05:40;;;;;;;6.77;3.87;;;;;;;29.45;39.74;100504.72;4992745;28;20386;-76
2023/07/01 08:08:07;;;;;;;8.10;4.10;;;;;;;29.57;39.64;100509.69;4975247;28;20952;-75
2023/07/01 08:10:32;;;;;;;7.55;3.63;;;;;;;29.55;39.00;100499.06;4991862;28;20385;-75
2023/07/01 08:12:58;;;;;;;6.95;4.00;;;;;;;29.71;38.95;100512.41;4992654;28;20409;-75
2023/07/01 08:15:23;;;;;;;4.82;3.55;;;;;;;29.75;38.54;100499.81;4992246;28;20416;-75
2023/07/01 08:17:49;;;;;;;5.63;3.03;;;;;;;29.77;38.08;100500.31;4993354;28;20389;-76
2023/07/01 08:20:15;;;;;;;5.43;2.80;;;;;;;29.72;37.55;100501.19;4994056;28;20420;-76
2023/07/01 08:22:41;;;;;;;7.47;3.45;;;;;;;29.78;37.95;100504.66;4994006;28;20401;-76
2023/07/01 08:25:06;;;;;;;6.10;2.90;;;;;;;29.97;37.43;100501.00;4993706;28;20440;-76
2023/07/01 08:27:32;;;;;;;11.70;3.25;;;;;;;30.01;37.40;100513.72;4994149;28;20402;-76
2023/07/01 08:29:57;;;;;;;5.07;2.67;;;;;;;30.08;36.27;100508.66;4993851;28;20385;-75
2023/07/01 08:32:23;;;;;;;4.57;2.90;;;;;;;29.85;36.30;100504.25;4994316;28;20385;-76
2023/07/01 08:34:49;;;;;;;6.25;2.88;;;;;;;29.90;36.60;100506.88;4993615;28;20735;-77
2023/07/01 08:37:14;;;;;;;5.00;3.00;;;;;;;30.03;36.07;100497.03;4993663;28;20406;-75
2023/07/01 08:39:40;;;;;;;4.18;2.80;;;;;;;30.34;36.33;100491.72;4993218;28;20432;-76
2023/07/01 08:42:09;;;;;;;4.80;2.80;;;;;;;30.77;35.38;100493.19;4993368;28;20404;-76
2023/07/01 08:44:38;;;;;;;6.22;3.33;;;;;;;30.96;35.54;100496.56;4993762;28;20739;-76
2023/07/01 08:47:04;;;;;;;5.50;3.30;;;;;;;31.00;35.81;100499.47;4993993;28;20448;-77
2023/07/01 08:49:31;;;;;;;8.05;3.45;;;;;;;30.61;35.43;100503.69;4993626;28;20385;-76
2023/07/01 08:52:08;;;;;;;3.90;3.10;;;;;;;30.36;35.95;100497.72;4992961;28;20972;-76
2023/07/01 08:54:34;;;;;;;5.30;3.33;;;;;;;30.57;36.48;100497.22;4975836;28;20390;-76
2023/07/01 08:57:01;;;;;;;3.78;3.17;;;;;;;30.94;36.01;100506.22;4992255;28;20466;-75
2023/07/01 08:59:28;;;;;;;5.25;3.50;;;;;;;30.86;36.11;100497.59;4992892;28;20378;-75
2023/07/01 09:01:56;;;;;;;5.07;3.58;;;;;;;30.84;35.89;100499.03;4992342;28;20424;-76
2023/07/01 09:04:21;;;;;;;8.00;4.20;;;;;;;31.00;36.14;100492.06;4992295;28;20476;-75
2023/07/01 09:06:47;;;;;;;5.88;3.55;;;;;;;31.17;36.79;100493.28;4974956;28;20461;-76
2023/07/01 09:09:15;;;;;;;6.73;3.20;;;;;;;31.19;35.74;100486.38;4991671;28;21298;-76
2023/07/01 09:11:40;;;;;;;3.43;3.13;;;;;;;31.06;35.25;100479.88;4992186;28;20393;-75
2023/07/01 09:14:06;;;;;;;6.03;3.23;;;;;;;31.04;35.42;100486.78;4992179;28;20886;-75
2023/07/01 09:16:38;;;;;;;9.32;3.97;;;;;;;31.19;35.04;100474.63;4981802;28;20422;-75
2023/07/01 09:19:10;;;;;;;15.85;4.15;;;;;;;31.19;35.20;100469.94;4975633;28;20762;-75
2023/07/01 09:21:37;;;;;;;8.33;3.97;;;;;;;31.22;35.66;100473.97;4978005;28;20950;-77
2023/07/01 09:24:06;;;;;;;6.72;4.20;;;;;;;31.29;35.69;100460.63;4961664;28;20771;-75
2023/07/01 09:26:32;;;;;;;6.38;3.53;;;;;;;31.36;35.63;100457.44;4975495;28;20405;-76
2023/07/01 09:28:59;;;;;;;8.00;3.88;;;;;;;31.49;35.49;100464.78;4977662;28;20405;-75
2023/07/01 09:31:26;;;;;;;17.60;5.00;;;;;;;31.56;35.00;100454.16;4977249;28;20401;-75
2023/07/01 09:34:02;;;;;;;6.40;3.42;;;;;;;31.57;34.80;100461.25;4963103;28;20504;-74
2023/07/01 09:36:30;;;;;;;6.82;3.30;;;;;;;31.60;34.83;100451.59;4974109;28;20510;-75
2023/07/01 09:38:56;;;;;;;4.35;3.35;;;;;;;31.83;34.91;100447.59;4988888;28;20809;-75
2023/07/01 09:41:25;;;;;;;5.87;3.43;;;;;;;31.79;35.07;100438.41;5007240;28;20393;-75
2023/07/01 09:43:51;;;;;;;6.47;3.30;;;;;;;31.77;34.96;100448.09;4991705;28;20924;-75
2023/07/01 09:46:17;;;;;;;5.50;3.20;;;;;;;31.75;35.05;100422.94;4991576;28;20735;-75
2023/07/01 09:48:56;;;;;;;6.43;3.20;;;;;;;31.79;35.49;100421.16;4992557;28;20386;-76
2023/07/01 09:51:24;;;;;;;9.00;3.65;;;;;;;32.16;35.12;100428.00;4992271;28;20855;-75
2023/07/01 09:53:50;;;;;;;3.92;3.20;;;;;;;32.20;34.41;100434.44;4991653;28;20477;-76
2023/07/01 09:56:17;;;;;;;5.53;3.30;;;;;;;32.25;34.25;100429.91;4991064;28;20544;-76
2023/07/01 09:58:45;;;;;;;8.60;3.35;;;;;;;32.19;34.54;100426.53;4974810;28;20401;-76
2023/07/01 10:01:13;;;;;;;4.15;2.92;;;;;;;32.16;33.87;100419.78;4991799;28;20557;-76
2023/07/01 10:03:39;;;;;;;5.75;3.25;;;;;;;32.32;34.04;100420.09;4990708;28;21005;-76
2023/07/01 10:06:05;;;;;;;6.80;3.47;;;;;;;32.38;33.29;100418.78;4990813;28;20454;-75
2023/07/01 10:08:31;;;;;;;4.32;3.08;;;;;;;32.41;33.28;100413.78;4991359;28;20455;-75
2023/07/01 10:11:07;;;;;;;5.87;3.70;;;;;;;32.40;32.83;100407.50;4990846;28;21060;-75
2023/07/01 10:13:41;;;;;;;14.10;13.00;;;;;;;32.51;32.86;100403.28;4991356;28;20373;-75
2023/07/01 10:16:08;;;;;;;19.60;18.20;;;;;;;32.64;32.92;100400.69;4990947;28;20556;-74
2023/07/01 10:18:34;;;;;;;14.52;13.38;;;;;;;32.85;33.59;100409.03;4991663;28;20465;-75
2023/07/01 10:21:24;;;;;;;5.93;3.10;;;;;;;32.85;33.10;100401.59;4991098;28;20473;-76
2023/07/01 10:23:54;;;;;;;5.18;3.28;;;;;;;32.92;33.01;100395.59;4991198;28;20370;-75
2023/07/01 10:26:31;;;;;;;4.05;3.03;;;;;;;33.12;32.55;100385.84;4990481;28;20751;-74
2023/07/01 10:28:58;;;;;;;6.63;3.30;;;;;;;33.11;32.33;100385.00;4990818;28;20447;-75
2023/07/01 10:31:23;;;;;;;4.88;2.80;;;;;;;33.02;31.32;100388.94;4991334;28;20386;-75
2023/07/01 10:33:51;;;;;;;4.22;2.70;;;;;;;32.95;30.85;100382.03;4993263;28;20396;-76
2023/07/01 10:36:19;;;;;;;11.95;3.20;;;;;;;33.07;30.46;100378.56;4994901;28;20430;-75
2023/07/01 10:38:45;;;;;;;2.53;2.20;;;;;;;33.20;30.66;100368.50;4995196;28;20795;-75
2023/07/01 10:41:11;;;;;;;2.83;2.50;;;;;;;33.24;30.25;100376.91;4994596;28;20394;-75
2023/07/01 10:43:37;;;;;;;4.57;2.43;;;;;;;33.15;29.98;100368.69;4994559;28;20393;-75
2023/07/01 10:46:07;;;;;;;5.40;2.83;;;;;;;33.12;30.11;100372.09;4994499;28;20386;-73
2023/07/01 10:48:36;;;;;;;4.20;2.40;;;;;;;33.22;29.88;100370.94;4993869;28;20452;-75
2023/07/01 10:51:09;;;;;;;6.72;3.47;;;;;;;33.20;30.20;100365.75;4994564;28;20859;-75
2023/07/01 10:54:04;;;;;;;5.75;2.80;;;;;;;33.20;30.45;100359.47;4994681;28;20392;-74
2023/07/01 10:56:35;;;;;;;7.00;4.47;;;;;;;33.31;30.47;100356.03;4994347;28;20414;-75
2023/07/01 10:59:23;;;;;;;4.50;2.90;;;;;;;33.30;30.11;100359.91;4994742;28;20390;-75
2023/07/01 11:02:01;;;;;;;4.80;2.35;;;;;;;33.27;30.28;100352.31;4982222;28;20476;-74
2023/07/01 11:04:54;;;;;;;4.37;2.63;;;;;;;33.38;30.58;100358.22;4993553;28;20536;-73
2023/07/01 11:07:27;;;;;;;6.63;3.30;;;;;;;33.39;29.78;100354.34;4994117;28;20469;-74
2023/07/01 11:09:55;;;;;;;5.13;2.63;;;;;;;33.38;29.83;100343.69;4980102;28;20389;-75
2023/07/01 11:12:23;;;;;;;5.30;2.88;;;;;;;33.56;29.24;100338.88;4982083;28;20427;-74
2023/07/01 11:14:51;;;;;;;9.05;2.97;;;;;;;33.67;29.51;100351.09;4974476;28;20397;-74
2023/07/01 11:17:19;;;;;;;7.57;3.10;;;;;;;33.66;29.80;100342.06;4974696;28;20495;-74
2023/07/01 11:19:45;;;;;;;6.25;3.13;;;;;;;33.63;30.05;100342.69;4974662;28;20391;-75
2023/07/01 11:22:14;;;;;;;5.28;2.80;;;;;;;33.82;29.40;100328.53;4974158;28;20419;-74
2023/07/01 11:24:40;;;;;;;3.40;2.65;;;;;;;33.86;29.56;100332.19;4975401;28;20387;-74